AVA4839 SKBO-SKPE
Flight info
| Callsign | AVA4839 |
|---|---|
| Flight time | 0h 27m |
| Altitude | 20000 |
| Route | ISNOX2S ISNOX ISNOX1C |
| Aircraft | A320/M-SDE3FGHIRWY/LB1 |
Departure
| Time | 2026-04-25 12:52 |
|---|---|
| Airport | El Dorado International Airport (SKBO) |
Arrival
| Time | 2026-04-25 13:19 |
|---|---|
| Airport | Matecaña International Airport (SKPE) |
| Time | Latitude | Longitude | Altitude | Speed | Heading |
|---|---|---|---|---|---|
| 2026-04-25 11:52 | 4.69698 | -74.14414 | 8373 ft | 0 kts | 37° |
| 2026-04-25 12:19 | 4.69683 | -74.14426 | 8374 ft | 4 kts | 38° |
| 2026-04-25 12:19 | 4.69666 | -74.14440 | 8374 ft | 4 kts | 67° |
| 2026-04-25 12:20 | 4.69663 | -74.14450 | 8374 ft | 0 kts | 96° |
| 2026-04-25 12:21 | 4.69664 | -74.14452 | 8374 ft | 2 kts | 87° |
| 2026-04-25 12:21 | 4.69661 | -74.14464 | 8373 ft | 0 kts | 38° |
| 2026-04-25 12:27 | 4.69663 | -74.14465 | 8373 ft | 1 kts | 13° |
| 2026-04-25 12:27 | 4.69670 | -74.14475 | 8373 ft | 5 kts | 308° |
| 2026-04-25 12:28 | 4.69724 | -74.14545 | 8373 ft | 13 kts | 307° |
| 2026-04-25 12:28 | 4.69773 | -74.14609 | 8373 ft | 10 kts | 307° |
| 2026-04-25 12:28 | 4.69807 | -74.14654 | 8373 ft | 10 kts | 306° |
| 2026-04-25 12:28 | 4.69850 | -74.14713 | 8372 ft | 9 kts | 307° |
| 2026-04-25 12:29 | 4.69878 | -74.14751 | 8372 ft | 7 kts | 307° |
| 2026-04-25 12:29 | 4.69904 | -74.14788 | 8373 ft | 4 kts | 291° |
| 2026-04-25 12:29 | 4.69889 | -74.14819 | 8372 ft | 8 kts | 218° |
| 2026-04-25 12:29 | 4.69856 | -74.14844 | 8371 ft | 4 kts | 217° |
| 2026-04-25 12:30 | 4.69824 | -74.14869 | 8369 ft | 16 kts | 218° |
| 2026-04-25 12:30 | 4.69821 | -74.14927 | 8372 ft | 1 kts | 306° |
| 2026-04-25 12:30 | 4.69833 | -74.14944 | 8372 ft | 10 kts | 306° |
| 2026-04-25 12:30 | 4.69905 | -74.15040 | 8373 ft | 21 kts | 307° |
| 2026-04-25 12:31 | 4.69985 | -74.15145 | 8371 ft | 17 kts | 306° |
| 2026-04-25 12:31 | 4.70049 | -74.15230 | 8373 ft | 14 kts | 307° |
| 2026-04-25 12:31 | 4.70124 | -74.15329 | 8372 ft | 24 kts | 307° |
| 2026-04-25 12:31 | 4.70248 | -74.15493 | 8373 ft | 31 kts | 307° |
| 2026-04-25 12:32 | 4.70368 | -74.15653 | 8373 ft | 27 kts | 307° |
| 2026-04-25 12:32 | 4.70467 | -74.15784 | 8372 ft | 22 kts | 307° |
| 2026-04-25 12:32 | 4.70557 | -74.15902 | 8371 ft | 21 kts | 307° |
| 2026-04-25 12:32 | 4.70669 | -74.16050 | 8372 ft | 28 kts | 308° |
| 2026-04-25 12:33 | 4.70778 | -74.16194 | 8371 ft | 24 kts | 307° |
| 2026-04-25 12:33 | 4.70869 | -74.16313 | 8374 ft | 20 kts | 307° |
| 2026-04-25 12:33 | 4.70946 | -74.16413 | 8373 ft | 16 kts | 308° |
| 2026-04-25 12:33 | 4.71007 | -74.16495 | 8371 ft | 13 kts | 307° |
| 2026-04-25 12:34 | 4.71055 | -74.16558 | 8373 ft | 10 kts | 307° |
| 2026-04-25 12:34 | 4.71099 | -74.16618 | 8373 ft | 11 kts | 307° |
| 2026-04-25 12:34 | 4.71142 | -74.16674 | 8373 ft | 9 kts | 307° |
| 2026-04-25 12:34 | 4.71166 | -74.16707 | 8372 ft | 7 kts | 307° |
| 2026-04-25 12:35 | 4.71188 | -74.16736 | 8373 ft | 2 kts | 307° |
| 2026-04-25 12:35 | 4.71197 | -74.16748 | 8373 ft | 0 kts | 307° |
| 2026-04-25 12:43 | 4.71203 | -74.16756 | 8373 ft | 2 kts | 301° |
| 2026-04-25 12:43 | 4.71203 | -74.16787 | 8373 ft | 0 kts | 248° |
| 2026-04-25 12:44 | 4.71167 | -74.16820 | 8371 ft | 3 kts | 216° |
| 2026-04-25 12:45 | 4.71145 | -74.16837 | 8373 ft | 0 kts | 217° |
| 2026-04-25 12:48 | 4.71127 | -74.16850 | 8373 ft | 11 kts | 217° |
| 2026-04-25 12:49 | 4.71063 | -74.16891 | 8373 ft | 8 kts | 198° |
| 2026-04-25 12:49 | 4.71028 | -74.16881 | 8373 ft | 5 kts | 130° |
| 2026-04-25 12:49 | 4.71026 | -74.16878 | 8373 ft | 0 kts | 126° |
| 2026-04-25 12:51 | 4.71019 | -74.16868 | 8373 ft | 8 kts | 127° |
| 2026-04-25 12:51 | 4.70867 | -74.16666 | 8373 ft | 71 kts | 127° |
| 2026-04-25 12:51 | 4.70443 | -74.16106 | 8374 ft | 129 kts | 127° |
| 2026-04-25 12:51 | 4.69805 | -74.15265 | 8373 ft | 177 kts | 127° |
| 2026-04-25 12:52 | 4.69032 | -74.14223 | 8921 ft | 185 kts | 126° |
| 2026-04-25 12:52 | 4.68119 | -74.13323 | 9638 ft | 187 kts | 159° |
| 2026-04-25 12:52 | 4.66852 | -74.13272 | 10209 ft | 191 kts | 202° |
| 2026-04-25 12:52 | 4.65807 | -74.14157 | 10457 ft | 209 kts | 237° |
| 2026-04-25 12:53 | 4.64985 | -74.15457 | 10584 ft | 232 kts | 237° |
| 2026-04-25 12:53 | 4.64091 | -74.16864 | 10878 ft | 244 kts | 237° |
| 2026-04-25 12:53 | 4.63166 | -74.18305 | 11368 ft | 247 kts | 237° |
| 2026-04-25 12:53 | 4.62226 | -74.19755 | 11898 ft | 249 kts | 237° |
| 2026-04-25 12:54 | 4.61475 | -74.21316 | 12350 ft | 252 kts | 255° |
| 2026-04-25 12:54 | 4.61093 | -74.23108 | 12488 ft | 275 kts | 259° |
| 2026-04-25 12:54 | 4.60714 | -74.25067 | 12640 ft | 298 kts | 259° |
| 2026-04-25 12:54 | 4.60273 | -74.27178 | 12767 ft | 321 kts | 252° |
| 2026-04-25 12:55 | 4.59268 | -74.29261 | 12876 ft | 343 kts | 241° |
| 2026-04-25 12:55 | 4.58497 | -74.30676 | 12979 ft | 356 kts | 242° |
| 2026-04-25 12:55 | 4.56967 | -74.33658 | 13636 ft | 365 kts | 243° |
| 2026-04-25 12:55 | 4.55828 | -74.35941 | 14213 ft | 368 kts | 244° |
| 2026-04-25 12:56 | 4.54679 | -74.38248 | 14744 ft | 371 kts | 244° |
| 2026-04-25 12:56 | 4.53532 | -74.40534 | 15270 ft | 374 kts | 244° |
| 2026-04-25 12:56 | 4.52482 | -74.42609 | 15732 ft | 376 kts | 244° |
| 2026-04-25 12:56 | 4.51285 | -74.44962 | 16240 ft | 380 kts | 243° |
| 2026-04-25 12:57 | 4.50074 | -74.47329 | 16762 ft | 383 kts | 243° |
| 2026-04-25 12:57 | 4.48851 | -74.49712 | 17285 ft | 386 kts | 243° |
| 2026-04-25 12:57 | 4.47616 | -74.52117 | 17597 ft | 390 kts | 243° |
| 2026-04-25 12:57 | 4.46393 | -74.54499 | 17646 ft | 390 kts | 243° |
| 2026-04-25 12:58 | 4.45156 | -74.56915 | 17644 ft | 390 kts | 243° |
| 2026-04-25 12:58 | 4.43915 | -74.59347 | 18069 ft | 393 kts | 243° |
| 2026-04-25 12:58 | 4.42666 | -74.61793 | 18568 ft | 396 kts | 243° |
| 2026-04-25 12:58 | 4.41399 | -74.64264 | 19001 ft | 399 kts | 243° |
| 2026-04-25 12:59 | 4.40122 | -74.66746 | 19472 ft | 401 kts | 243° |
| 2026-04-25 12:59 | 4.38839 | -74.69242 | 19846 ft | 404 kts | 243° |
| 2026-04-25 12:59 | 4.37547 | -74.71754 | 19952 ft | 407 kts | 243° |
| 2026-04-25 12:59 | 4.36229 | -74.74316 | 19976 ft | 416 kts | 243° |
| 2026-04-25 13:00 | 4.34898 | -74.76894 | 19970 ft | 418 kts | 243° |
| 2026-04-25 13:00 | 4.34011 | -74.78609 | 19977 ft | 418 kts | 243° |
| 2026-04-25 13:00 | 4.32456 | -74.82176 | 19977 ft | 418 kts | 254° |
| 2026-04-25 13:00 | 4.31894 | -74.85028 | 19975 ft | 417 kts | 265° |
| 2026-04-25 13:01 | 4.31894 | -74.87923 | 19977 ft | 416 kts | 276° |
| 2026-04-25 13:01 | 4.32409 | -74.90740 | 19983 ft | 416 kts | 283° |
| 2026-04-25 13:01 | 4.33065 | -74.93567 | 19983 ft | 416 kts | 283° |
| 2026-04-25 13:01 | 4.33715 | -74.96393 | 19985 ft | 416 kts | 283° |
| 2026-04-25 13:02 | 4.34364 | -74.99225 | 19988 ft | 416 kts | 283° |
| 2026-04-25 13:02 | 4.35010 | -75.02056 | 20075 ft | 416 kts | 283° |
| 2026-04-25 13:02 | 4.35655 | -75.04880 | 20084 ft | 416 kts | 283° |
| 2026-04-25 13:02 | 4.36303 | -75.07713 | 20091 ft | 416 kts | 283° |
| 2026-04-25 13:03 | 4.36955 | -75.10546 | 20091 ft | 416 kts | 283° |
| 2026-04-25 13:03 | 4.37604 | -75.13364 | 20089 ft | 415 kts | 283° |
| 2026-04-25 13:03 | 4.38242 | -75.16151 | 20089 ft | 415 kts | 283° |
| 2026-04-25 13:03 | 4.38886 | -75.18970 | 20087 ft | 415 kts | 283° |
| 2026-04-25 13:04 | 4.39531 | -75.21791 | 20087 ft | 415 kts | 283° |
| 2026-04-25 13:04 | 4.40175 | -75.24604 | 20090 ft | 414 kts | 283° |
| 2026-04-25 13:04 | 4.40820 | -75.27417 | 20085 ft | 415 kts | 283° |
| 2026-04-25 13:04 | 4.41465 | -75.30233 | 20082 ft | 414 kts | 283° |
| 2026-04-25 13:05 | 4.42110 | -75.33049 | 20075 ft | 415 kts | 283° |
| 2026-04-25 13:05 | 4.42757 | -75.35866 | 20099 ft | 415 kts | 283° |
| 2026-04-25 13:05 | 4.43404 | -75.38688 | 20100 ft | 413 kts | 283° |
| 2026-04-25 13:05 | 4.44039 | -75.41462 | 20113 ft | 405 kts | 283° |
| 2026-04-25 13:06 | 4.44666 | -75.44205 | 20110 ft | 402 kts | 283° |
| 2026-04-25 13:06 | 4.45287 | -75.46927 | 19876 ft | 397 kts | 283° |
| 2026-04-25 13:06 | 4.45892 | -75.49575 | 19770 ft | 383 kts | 283° |
| 2026-04-25 13:06 | 4.46476 | -75.52137 | 19657 ft | 370 kts | 283° |
| 2026-04-25 13:07 | 4.47039 | -75.54613 | 19550 ft | 358 kts | 283° |
| 2026-04-25 13:07 | 4.47720 | -75.56969 | 19433 ft | 347 kts | 289° |
| 2026-04-25 13:07 | 4.48649 | -75.59153 | 19319 ft | 336 kts | 301° |
| 2026-04-25 13:07 | 4.50050 | -75.60971 | 19208 ft | 325 kts | 316° |
| 2026-04-25 13:08 | 4.51799 | -75.62355 | 19018 ft | 318 kts | 326° |
| 2026-04-25 13:08 | 4.53624 | -75.63582 | 18726 ft | 312 kts | 326° |
| 2026-04-25 13:08 | 4.55402 | -75.64776 | 18163 ft | 309 kts | 325° |
| 2026-04-25 13:08 | 4.57248 | -75.65868 | 17549 ft | 307 kts | 333° |
| 2026-04-25 13:09 | 4.59167 | -75.66788 | 16948 ft | 304 kts | 333° |
| 2026-04-25 13:09 | 4.61066 | -75.67707 | 16367 ft | 302 kts | 333° |
| 2026-04-25 13:09 | 4.62951 | -75.68621 | 15847 ft | 299 kts | 333° |
| 2026-04-25 13:09 | 4.64819 | -75.69528 | 15319 ft | 297 kts | 332° |
| 2026-04-25 13:10 | 4.66637 | -75.70529 | 14684 ft | 296 kts | 320° |
| 2026-04-25 13:10 | 4.67996 | -75.71992 | 14442 ft | 280 kts | 301° |
| 2026-04-25 13:10 | 4.68768 | -75.73737 | 14144 ft | 269 kts | 283° |
| 2026-04-25 13:10 | 4.69217 | -75.75507 | 13875 ft | 263 kts | 283° |
| 2026-04-25 13:11 | 4.69666 | -75.77279 | 13612 ft | 262 kts | 283° |
| 2026-04-25 13:11 | 4.70097 | -75.79047 | 13344 ft | 262 kts | 278° |
| 2026-04-25 13:11 | 4.70147 | -75.80867 | 13012 ft | 264 kts | 261° |
| 2026-04-25 13:11 | 4.69674 | -75.82641 | 12543 ft | 262 kts | 251° |
| 2026-04-25 13:12 | 4.69103 | -75.84370 | 12153 ft | 260 kts | 251° |
| 2026-04-25 13:12 | 4.68542 | -75.86094 | 11765 ft | 259 kts | 252° |
| 2026-04-25 13:12 | 4.67988 | -75.87807 | 11375 ft | 258 kts | 252° |
| 2026-04-25 13:12 | 4.67623 | -75.88937 | 11108 ft | 257 kts | 252° |
| 2026-04-25 13:13 | 4.66889 | -75.91213 | 10571 ft | 257 kts | 252° |
| 2026-04-25 13:13 | 4.66618 | -75.92979 | 10144 ft | 259 kts | 278° |
| 2026-04-25 13:13 | 4.67318 | -75.94596 | 9725 ft | 252 kts | 312° |
| 2026-04-25 13:13 | 4.68746 | -75.95542 | 9299 ft | 246 kts | 341° |
| 2026-04-25 13:14 | 4.70348 | -75.96035 | 8894 ft | 241 kts | 342° |
| 2026-04-25 13:14 | 4.71992 | -75.96358 | 8466 ft | 236 kts | 5° |
| 2026-04-25 13:14 | 4.73516 | -75.95860 | 8072 ft | 230 kts | 36° |
| 2026-04-25 13:14 | 4.74531 | -75.94680 | 7769 ft | 224 kts | 66° |
| 2026-04-25 13:15 | 4.75048 | -75.93216 | 7417 ft | 222 kts | 72° |
| 2026-04-25 13:15 | 4.75514 | -75.91775 | 7168 ft | 215 kts | 72° |
| 2026-04-25 13:15 | 4.75956 | -75.90400 | 7097 ft | 199 kts | 72° |
| 2026-04-25 13:15 | 4.76367 | -75.89121 | 7018 ft | 187 kts | 72° |
| 2026-04-25 13:16 | 4.76776 | -75.87851 | 6634 ft | 195 kts | 72° |
| 2026-04-25 13:16 | 4.77189 | -75.86564 | 6234 ft | 190 kts | 72° |
| 2026-04-25 13:16 | 4.77584 | -75.85334 | 6204 ft | 183 kts | 72° |
| 2026-04-25 13:16 | 4.77973 | -75.84126 | 6136 ft | 181 kts | 72° |
| 2026-04-25 13:17 | 4.78354 | -75.82949 | 6064 ft | 171 kts | 72° |
| 2026-04-25 13:17 | 4.78709 | -75.81853 | 5896 ft | 162 kts | 72° |
| 2026-04-25 13:17 | 4.79051 | -75.80795 | 5667 ft | 157 kts | 72° |
| 2026-04-25 13:17 | 4.79382 | -75.79772 | 5454 ft | 155 kts | 72° |
| 2026-04-25 13:18 | 4.79722 | -75.78731 | 5230 ft | 154 kts | 71° |
| 2026-04-25 13:18 | 4.80066 | -75.77730 | 5008 ft | 153 kts | 71° |
| 2026-04-25 13:18 | 4.80389 | -75.76707 | 4829 ft | 156 kts | 72° |
| 2026-04-25 13:18 | 4.80718 | -75.75674 | 4588 ft | 155 kts | 71° |
| 2026-04-25 13:19 | 4.81045 | -75.74642 | 4371 ft | 153 kts | 72° |
| 2026-04-25 13:19 | 4.81306 | -75.73841 | 4425 ft | 79 kts | 72° |
| 2026-04-25 13:19 | 4.81410 | -75.73518 | 4429 ft | 30 kts | 72° |
| 2026-04-25 13:19 | 4.81422 | -75.73483 | 4429 ft | 1 kts | 65° |
| 2026-04-25 13:20 | 4.81438 | -75.73466 | 4430 ft | 5 kts | 30° |
| 2026-04-25 13:20 | 4.81462 | -75.73466 | 4429 ft | 3 kts | 343° |
| 2026-04-25 13:20 | 4.81476 | -75.73470 | 4429 ft | 4 kts | 342° |
| 2026-04-25 13:20 | 4.81496 | -75.73481 | 4430 ft | 4 kts | 325° |
| 2026-04-25 13:21 | 4.81502 | -75.73557 | 4430 ft | 15 kts | 251° |
| 2026-04-25 13:21 | 4.81467 | -75.73663 | 4427 ft | 17 kts | 252° |
| 2026-04-25 13:21 | 4.81454 | -75.73704 | 4427 ft | 5 kts | 251° |
| 2026-04-25 13:21 | 4.81447 | -75.73729 | 4427 ft | 3 kts | 266° |
| 2026-04-25 13:22 | 4.81457 | -75.73743 | 4426 ft | 2 kts | 320° |
| 2026-04-25 13:22 | 4.81468 | -75.73744 | 4427 ft | 3 kts | 354° |
| 2026-04-25 13:22 | 4.81489 | -75.73750 | 4426 ft | 3 kts | 343° |
| 2026-04-25 13:23 | 4.81490 | -75.73750 | 4426 ft | 0 kts | 343° |